Time,TemperatureF,DewpointF,PressureIn,WindDirection,WindDirectionDegrees,WindSpeedMPH,WindSpeedGustMPH,Humidity,HourlyPrecipIn,Conditions,Clouds,dailyrainin,SoftwareType,DateUTC
2013-01-20 00:03:00,45.5,45.2,30.04,ESE,112,2.2,-999.0,99,-99.99,,,0.00,Acu-Link.com,2013-01-20 05:03:00,
2013-01-20 00:18:00,45.3,45.0,30.03,ESE,112,0.0,-999.0,99,-99.99,,,0.00,Acu-Link.com,2013-01-20 05:18:00,
2013-01-20 00:33:00,45.1,44.8,30.03,West,270,0.0,-999.0,99,-99.99,,,0.00,Acu-Link.com,2013-01-20 05:33:00,
2013-01-20 00:49:00,45.3,45.0,30.02,WNW,292,0.0,-999.0,99,-99.99,,,0.00,Acu-Link.com,2013-01-20 05:49:00,
2013-01-20 01:04:00,46.0,45.7,30.03,SSW,202,0.0,-999.0,99,-99.99,,,0.00,Acu-Link.com,2013-01-20 06:04:00,
2013-01-20 01:19:00,46.0,45.7,30.03,South,180,0.0,-999.0,99,-99.99,,,0.00,Acu-Link.com,2013-01-20 06:19:00,
2013-01-20 01:34:00,46.2,45.9,30.03,South,180,0.0,-999.0,99,-99.99,,,0.00,Acu-Link.com,2013-01-20 06:34:00,
2013-01-20 01:50:00,46.0,45.7,30.03,SW,225,0.0,-999.0,99,-99.99,,,0.00,Acu-Link.com,2013-01-20 06:50:00,
2013-01-20 02:05:00,46.9,46.6,30.02,South,180,0.0,-999.0,99,-99.99,,,0.00,Acu-Link.com,2013-01-20 07:05:00,
2013-01-20 02:20:00,47.3,47.0,30.02,SSW,202,0.0,-999.0,99,-99.99,,,0.00,Acu-Link.com,2013-01-20 07:20:00,
2013-01-20 02:36:00,46.9,46.6,30.02,South,180,0.0,-999.0,99,-99.99,,,0.00,Acu-Link.com,2013-01-20 07:36:00,
2013-01-20 02:51:00,47.3,47.0,30.02,South,180,0.0,-999.0,99,-99.99,,,0.00,Acu-Link.com,2013-01-20 07:51:00,
2013-01-20 03:06:00,47.3,47.0,30.01,South,180,0.0,-999.0,99,-99.99,,,0.00,Acu-Link.com,2013-01-20 08:06:00,
2013-01-20 03:22:00,47.7,47.4,30.01,NNW,337,0.0,-999.0,99,-99.99,,,0.00,Acu-Link.com,2013-01-20 08:22:00,
2013-01-20 03:37:00,47.8,47.5,30.00,SW,225,0.0,-999.0,99,-99.99,,,0.00,Acu-Link.com,2013-01-20 08:37:00,
2013-01-20 03:52:00,47.5,47.2,30.00,SSW,202,0.0,-999.0,99,-99.99,,,0.00,Acu-Link.com,2013-01-20 08:52:00,
2013-01-20 04:15:00,47.3,47.0,30.00,SW,225,0.0,-999.0,99,-99.99,,,0.00,Acu-Link.com,2013-01-20 09:15:00,
2013-01-20 04:30:00,46.9,46.6,30.00,SW,225,0.0,-999.0,99,-99.99,,,0.00,Acu-Link.com,2013-01-20 09:30:00,
2013-01-20 04:45:00,46.8,46.5,29.99,SW,225,0.0,-999.0,99,-99.99,,,0.00,Acu-Link.com,2013-01-20 09:45:00,
2013-01-20 05:00:00,46.4,46.1,30.00,SW,225,0.0,-999.0,99,-99.99,,,0.00,Acu-Link.com,2013-01-20 10:00:00,
2013-01-20 05:16:00,45.9,45.6,30.00,SW,225,0.0,-999.0,99,-99.99,,,0.00,Acu-Link.com,2013-01-20 10:16:00,
2013-01-20 05:31:00,45.9,45.6,30.00,SW,225,0.0,-999.0,99,-99.99,,,0.00,Acu-Link.com,2013-01-20 10:31:00,
2013-01-20 05:46:00,45.3,45.0,30.00,SSW,202,0.0,-999.0,99,-99.99,,,0.00,Acu-Link.com,2013-01-20 10:46:00,
2013-01-20 06:01:00,44.8,44.5,30.00,SSW,202,0.0,-999.0,99,-99.99,,,0.00,Acu-Link.com,2013-01-20 11:01:00,
2013-01-20 06:17:00,44.6,44.3,30.00,SSW,202,0.0,-999.0,99,-99.99,,,0.00,Acu-Link.com,2013-01-20 11:17:00,
2013-01-20 06:32:00,44.2,43.9,30.00,SSW,202,0.0,-999.0,99,-99.99,,,0.00,Acu-Link.com,2013-01-20 11:32:00,
2013-01-20 06:47:00,43.9,43.6,30.01,SSW,202,0.0,-999.0,99,-99.99,,,0.00,Acu-Link.com,2013-01-20 11:47:00,
2013-01-20 07:03:00,43.3,43.0,30.01,SSW,202,0.0,-999.0,99,-99.99,,,0.00,Acu-Link.com,2013-01-20 12:03:00,
2013-01-20 07:18:00,42.8,42.5,30.02,SSW,202,0.0,-999.0,99,-99.99,,,0.00,Acu-Link.com,2013-01-20 12:18:00,
2013-01-20 07:33:00,44.1,43.8,30.01,SSW,202,0.0,-999.0,99,-99.99,,,0.00,Acu-Link.com,2013-01-20 12:33:00,
2013-01-20 07:49:00,46.0,45.7,30.02,SSW,202,0.0,-999.0,99,-99.99,,,0.00,Acu-Link.com,2013-01-20 12:49:00,
2013-01-20 08:04:00,47.3,47.0,30.01,West,270,0.0,-999.0,99,-99.99,,,0.00,Acu-Link.com,2013-01-20 13:04:00,
2013-01-20 08:19:00,48.9,48.6,30.01,SSW,202,1.7,-999.0,99,-99.99,,,0.00,Acu-Link.com,2013-01-20 13:19:00,
2013-01-20 08:34:00,49.8,49.5,30.01,SSW,202,1.7,-999.0,99,-99.99,,,0.00,Acu-Link.com,2013-01-20 13:34:00,
2013-01-20 08:50:00,51.1,50.8,30.01,SSW,202,2.7,-999.0,99,-99.99,,,0.00,Acu-Link.com,2013-01-20 13:50:00,
2013-01-20 09:05:00,53.4,52.0,30.01,SW,225,2.2,-999.0,95,-99.99,,,0.00,Acu-Link.com,2013-01-20 14:05:00,
2013-01-20 09:20:00,55.2,52.3,30.02,West,270,6.8,-999.0,90,-99.99,,,0.00,Acu-Link.com,2013-01-20 14:20:00,
2013-01-20 09:36:00,56.3,52.5,30.02,West,270,6.3,-999.0,87,-99.99,,,0.00,Acu-Link.com,2013-01-20 14:36:00,
2013-01-20 09:51:00,56.3,51.5,30.03,West,270,7.3,-999.0,84,-99.99,,,0.00,Acu-Link.com,2013-01-20 14:51:00,
2013-01-20 10:07:00,55.9,50.5,30.03,West,270,7.3,-999.0,82,-99.99,,,0.00,Acu-Link.com,2013-01-20 15:07:00,
2013-01-20 10:22:00,57.2,52.1,30.02,NNW,337,5.8,-999.0,83,-99.99,,,0.00,Acu-Link.com,2013-01-20 15:22:00,
2013-01-20 10:37:00,58.8,51.3,30.02,NNW,337,7.3,-999.0,76,-99.99,,,0.00,Acu-Link.com,2013-01-20 15:37:00,
2013-01-20 10:53:00,59.2,49.0,30.01,WSW,247,8.3,-999.0,69,-99.99,,,0.00,Acu-Link.com,2013-01-20 15:53:00,
2013-01-20 11:08:00,60.4,49.4,30.00,WSW,247,7.8,-999.0,67,-99.99,,,0.00,Acu-Link.com,2013-01-20 16:08:00,
2013-01-20 11:24:00,60.6,49.6,29.99,West,270,9.4,-999.0,67,-99.99,,,0.00,Acu-Link.com,2013-01-20 16:24:00,
2013-01-20 11:39:00,62.8,49.6,29.98,West,270,9.4,-999.0,62,-99.99,,,0.00,Acu-Link.com,2013-01-20 16:39:00,
2013-01-20 11:54:00,63.7,49.1,29.96,West,270,7.3,-999.0,59,-99.99,,,0.00,Acu-Link.com,2013-01-20 16:54:00,
2013-01-20 12:09:00,63.3,48.7,29.95,West,270,12.5,-999.0,59,-99.99,,,0.00,Acu-Link.com,2013-01-20 17:09:00,
2013-01-20 12:24:00,63.9,49.7,29.94,West,270,13.5,-999.0,60,-99.99,,,0.00,Acu-Link.com,2013-01-20 17:24:00,
2013-01-20 12:39:00,62.8,48.7,29.93,West,270,7.8,-999.0,60,-99.99,,,0.00,Acu-Link.com,2013-01-20 17:39:00,
2013-01-20 12:55:00,64.9,48.3,29.92,West,270,8.3,-999.0,55,-99.99,,,0.00,Acu-Link.com,2013-01-20 17:55:00,
2013-01-20 13:10:00,65.8,48.2,29.90,West,270,8.3,-999.0,53,-99.99,,,0.00,Acu-Link.com,2013-01-20 18:10:00,
2013-01-20 13:25:00,66.2,44.8,29.90,West,270,6.8,-999.0,46,-99.99,,,0.00,Acu-Link.com,2013-01-20 18:25:00,
2013-01-20 13:41:00,66.7,41.0,29.89,West,270,10.4,-999.0,39,-99.99,,,0.00,Acu-Link.com,2013-01-20 18:41:00,
2013-01-20 13:56:00,66.7,43.5,29.88,West,270,11.9,-999.0,43,-99.99,,,0.00,Acu-Link.com,2013-01-20 18:56:00,
2013-01-20 14:11:00,66.7,42.2,29.88,West,270,8.3,-999.0,41,-99.99,,,0.00,Acu-Link.com,2013-01-20 19:11:00,
2013-01-20 14:26:00,67.1,40.6,29.88,SSW,202,7.8,-999.0,38,-99.99,,,0.00,Acu-Link.com,2013-01-20 19:26:00,
2013-01-20 14:42:00,67.1,37.8,29.87,WNW,292,5.3,-999.0,34,-99.99,,,0.00,Acu-Link.com,2013-01-20 19:42:00,
2013-01-20 14:57:00,67.8,37.6,29.87,West,270,7.8,-999.0,33,-99.99,,,0.00,Acu-Link.com,2013-01-20 19:57:00,
2013-01-20 15:12:00,67.6,37.5,29.87,West,270,4.7,-999.0,33,-99.99,,,0.00,Acu-Link.com,2013-01-20 20:12:00,
2013-01-20 15:28:00,68.2,37.2,29.87,West,270,6.8,-999.0,32,-99.99,,,0.00,Acu-Link.com,2013-01-20 20:28:00,
2013-01-20 15:43:00,67.8,37.6,29.87,West,270,6.8,-999.0,33,-99.99,,,0.00,Acu-Link.com,2013-01-20 20:43:00,
2013-01-20 15:58:00,67.5,38.9,29.87,WNW,292,7.3,-999.0,35,-99.99,,,0.00,Acu-Link.com,2013-01-20 20:58:00,
2013-01-20 16:14:00,67.1,38.5,29.87,West,270,4.7,-999.0,35,-99.99,,,0.00,Acu-Link.com,2013-01-20 21:14:00,
2013-01-20 16:29:00,66.7,37.4,29.88,SW,225,2.7,-999.0,34,-99.99,,,0.00,Acu-Link.com,2013-01-20 21:29:00,
2013-01-20 16:44:00,66.0,39.0,29.88,West,270,0.0,-999.0,37,-99.99,,,0.00,Acu-Link.com,2013-01-20 21:44:00,
2013-01-20 17:00:00,64.2,39.4,29.88,SW,225,0.0,-999.0,40,-99.99,,,0.00,Acu-Link.com,2013-01-20 22:00:00,
2013-01-20 17:15:00,62.4,39.0,29.88,SSW,202,1.7,-999.0,42,-99.99,,,0.00,Acu-Link.com,2013-01-20 22:15:00,
2013-01-20 17:30:00,60.1,41.4,29.88,SSE,157,0.0,-999.0,50,-99.99,,,0.00,Acu-Link.com,2013-01-20 22:30:00,
2013-01-20 17:46:00,57.6,43.8,29.89,NNE,22,0.0,-999.0,60,-99.99,,,0.00,Acu-Link.com,2013-01-20 22:46:00,
2013-01-20 18:32:00,52.5,42.2,29.89,NNE,22,0.0,-999.0,68,-99.99,,,0.00,Acu-Link.com,2013-01-20 23:32:00,
2013-01-20 18:47:00,51.1,40.9,29.89,NNE,22,0.0,-999.0,68,-99.99,,,0.00,Acu-Link.com,2013-01-20 23:47:00,
2013-01-20 19:02:00,50.4,41.0,29.89,NNE,22,0.0,-999.0,70,-99.99,,,0.00,Acu-Link.com,2013-01-21 00:02:00,
2013-01-20 19:18:00,48.9,41.0,29.90,NNE,22,0.0,-999.0,74,-99.99,,,0.00,Acu-Link.com,2013-01-21 00:18:00,
2013-01-20 19:33:00,48.4,41.5,29.89,NNE,22,0.0,-999.0,77,-99.99,,,0.00,Acu-Link.com,2013-01-21 00:33:00,
2013-01-20 19:48:00,48.2,41.7,29.90,NNE,22,0.0,-999.0,78,-99.99,,,0.00,Acu-Link.com,2013-01-21 00:48:00,
2013-01-20 20:03:00,46.9,41.4,29.90,NNE,22,0.0,-999.0,81,-99.99,,,0.00,Acu-Link.com,2013-01-21 01:03:00,
2013-01-20 20:19:00,46.2,40.7,29.90,NNE,22,0.0,-999.0,81,-99.99,,,0.00,Acu-Link.com,2013-01-21 01:19:00,
2013-01-20 20:34:00,46.0,41.1,29.91,NNE,22,0.0,-999.0,83,-99.99,,,0.00,Acu-Link.com,2013-01-21 01:34:00,
2013-01-20 20:49:00,44.8,40.3,29.91,NNE,22,0.0,-999.0,84,-99.99,,,0.00,Acu-Link.com,2013-01-21 01:49:00,
2013-01-20 21:05:00,44.6,40.4,29.91,NNE,22,0.0,-999.0,85,-99.99,,,0.00,Acu-Link.com,2013-01-21 02:05:00,
2013-01-20 21:20:00,43.7,39.8,29.92,NNE,22,0.0,-999.0,86,-99.99,,,0.00,Acu-Link.com,2013-01-21 02:20:00,
2013-01-20 21:35:00,44.2,41.7,29.92,NNE,22,0.0,-999.0,91,-99.99,,,0.00,Acu-Link.com,2013-01-21 02:35:00,
2013-01-20 21:51:00,44.8,42.0,29.92,NNE,22,0.0,-999.0,90,-99.99,,,0.00,Acu-Link.com,2013-01-21 02:51:00,
2013-01-20 22:06:00,44.2,42.0,29.92,NNE,22,0.0,-999.0,92,-99.99,,,0.00,Acu-Link.com,2013-01-21 03:06:00,
2013-01-20 22:21:00,43.5,41.6,29.92,NNE,22,0.0,-999.0,93,-99.99,,,0.00,Acu-Link.com,2013-01-21 03:21:00,
2013-01-20 22:52:00,42.8,42.0,29.92,NNE,22,0.0,-999.0,97,-99.99,,,0.00,Acu-Link.com,2013-01-21 03:52:00,
2013-01-20 23:07:00,42.6,42.3,29.92,NNE,22,0.0,-999.0,99,-99.99,,,0.00,Acu-Link.com,2013-01-21 04:07:00,
2013-01-20 23:22:00,42.8,42.5,29.92,NNE,22,0.0,-999.0,99,-99.99,,,0.00,Acu-Link.com,2013-01-21 04:22:00,
2013-01-20 23:38:00,42.8,42.5,29.91,NNE,22,0.0,-999.0,99,-99.99,,,0.00,Acu-Link.com,2013-01-21 04:38:00,
2013-01-20 23:53:00,42.6,42.3,29.91,NNE,22,0.0,-999.0,99,-99.99,,,0.00,Acu-Link.com,2013-01-21 04:53:00,